Time;durP1;ratioP1;P1;durP2;ratioP2;P2;SDS_P1;SDS_P2;PMS_P1;PMS_P2;Temp;Humidity;BMP_temperature;BMP_pressure;BME280_temperature;BME280_humidity;BME280_pressure;Samples;Min_cycle;Max_cycle;Signal;HPM_P1;HPM_P2
2021/05/13 00:00:52;;;;;;;11.48;8.05;;;11.90;99.90;;;;;;12204264;28;20467;-80
2021/05/13 00:06:53;;;;;;;9.43;7.13;;;11.90;99.90;;;;;;12207070;28;20043;-79
2021/05/13 00:13:01;;;;;;;11.15;8.20;;;11.80;99.90;;;;;;12209447;28;20056;-79
2021/05/13 00:19:13;;;;;;;12.07;8.00;;;11.80;99.90;;;;;;12211265;28;20091;-79
2021/05/13 00:25:16;;;;;;;14.95;8.45;;;11.70;99.90;;;;;;12223072;28;20040;-79
2021/05/13 00:31:17;;;;;;;10.82;7.95;;;11.60;99.90;;;;;;12203048;28;20127;-79
2021/05/13 00:37:19;;;;;;;9.40;8.00;;;11.70;99.90;;;;;;12206855;28;20056;-79
2021/05/13 00:43:21;;;;;;;12.48;8.05;;;11.90;99.90;;;;;;12225391;28;20483;-79
2021/05/13 00:49:23;;;;;;;13.23;8.25;;;11.70;99.90;;;;;;12202083;28;20481;-79
2021/05/13 00:55:25;;;;;;;11.80;8.82;;;11.60;99.90;;;;;;12217491;28;20047;-79
2021/05/13 01:01:37;;;;;;;14.48;7.70;;;11.40;99.90;;;;;;12208652;28;20068;-79
2021/05/13 01:07:39;;;;;;;12.38;7.90;;;11.40;99.90;;;;;;12211576;28;20059;-79
2021/05/13 01:20:21;;;;;;;9.52;5.90;;;11.40;99.90;;;;;;12218698;28;20056;-79
2021/05/13 01:26:23;;;;;;;7.82;5.28;;;11.30;99.90;;;;;;12204618;28;20055;-79
2021/05/13 01:32:24;;;;;;;11.73;5.82;;;11.50;99.90;;;;;;12213215;28;20051;-79
2021/05/13 01:38:26;;;;;;;12.20;5.68;;;11.30;99.90;;;;;;12205722;28;20056;-79
2021/05/13 01:44:28;;;;;;;10.15;5.68;;;11.30;99.90;;;;;;12211462;28;20143;-79
2021/05/13 01:50:34;;;;;;;12.85;5.47;;;11.30;99.90;;;;;;12211649;28;20098;-79
2021/05/13 01:56:36;;;;;;;9.02;5.22;;;11.20;99.90;;;;;;12226448;28;20091;-79
2021/05/13 02:02:38;;;;;;;9.75;4.88;;;10.90;99.90;;;;;;12208844;28;20139;-80
2021/05/13 02:08:40;;;;;;;8.80;5.47;;;10.90;99.90;;;;;;12202754;28;20086;-79
2021/05/13 02:14:41;;;;;;;7.65;5.60;;;10.60;99.90;;;;;;12205398;28;20079;-79
2021/05/13 02:20:43;;;;;;;10.70;5.35;;;10.30;99.90;;;;;;12211906;28;20074;-79
2021/05/13 02:26:45;;;;;;;15.05;6.72;;;10.50;99.90;;;;;;12212564;28;20098;-79
2021/05/13 02:32:47;;;;;;;11.68;5.60;;;10.30;99.90;;;;;;12216681;28;20763;-79
2021/05/13 02:38:49;;;;;;;12.10;5.75;;;10.40;99.90;;;;;;12202091;28;20055;-79
2021/05/13 02:44:51;;;;;;;9.07;5.22;;;10.60;99.90;;;;;;12200996;28;20083;-78
2021/05/13 02:50:52;;;;;;;12.73;5.40;;;10.60;99.90;;;;;;12197053;28;20098;-79
2021/05/13 02:56:54;;;;;;;10.80;5.65;;;10.40;99.90;;;;;;12203786;28;20592;-79
2021/05/13 03:02:57;;;;;;;8.50;4.82;;;10.20;99.90;;;;;;12211485;28;20048;-79
2021/05/13 03:09:01;;;;;;;10.88;4.25;;;10.50;99.90;;;;;;12222851;28;20508;-79
2021/05/13 03:15:03;;;;;;;7.38;4.80;;;10.30;99.90;;;;;;12208626;28;20082;-79
2021/05/13 03:21:22;;;;;;;10.48;3.95;;;10.20;99.90;;;;;;12225733;28;20067;-79
2021/05/13 03:28:07;;;;;;;9.07;4.60;;;10.20;99.90;;;;;;12258536;28;20058;-79
2021/05/13 03:33:57;;;;;;;11.27;4.72;;;10.20;99.90;;;;;;12231481;28;20056;-79
2021/05/13 03:39:59;;;;;;;10.77;4.07;;;10.10;99.90;;;;;;12203238;28;20049;-79
2021/05/13 03:46:01;;;;;;;10.05;3.97;;;9.90;99.90;;;;;;12214083;28;20502;-79
2021/05/13 03:52:03;;;;;;;10.10;4.13;;;10.10;99.90;;;;;;12206627;28;20059;-79
2021/05/13 03:58:08;;;;;;;10.55;3.53;;;10.10;99.90;;;;;;12205379;28;20204;-78
2021/05/13 04:04:11;;;;;;;6.70;3.42;;;9.90;99.90;;;;;;12200649;28;20130;-79
2021/05/13 04:10:13;;;;;;;15.07;4.18;;;9.70;99.90;;;;;;12204575;28;20146;-79
2021/05/13 04:16:23;;;;;;;6.28;4.00;;;9.50;99.90;;;;;;12202958;28;20667;-80
2021/05/13 04:22:25;;;;;;;11.82;4.07;;;9.50;99.90;;;;;;12204986;28;20056;-79
2021/05/13 04:28:27;;;;;;;10.73;4.85;;;9.60;99.90;;;;;;12200632;28;20398;-79
2021/05/13 04:34:29;;;;;;;11.27;4.63;;;9.60;99.90;;;;;;12203712;28;20075;-79
2021/05/13 04:40:30;;;;;;;8.05;4.07;;;9.70;99.90;;;;;;12209818;28;20067;-79
2021/05/13 04:46:33;;;;;;;8.30;4.38;;;10.00;99.90;;;;;;12209391;28;20151;-79
2021/05/13 04:52:39;;;;;;;14.60;4.97;;;10.10;99.90;;;;;;12205727;28;20044;-79
2021/05/13 04:58:43;;;;;;;13.10;4.57;;;10.40;99.90;;;;;;12200165;28;20048;-79
2021/05/13 05:04:44;;;;;;;10.40;5.30;;;10.70;99.90;;;;;;12210448;28;20100;-80
2021/05/13 05:10:46;;;;;;;9.98;4.85;;;11.00;99.90;;;;;;12214121;28;20126;-80
2021/05/13 05:16:48;;;;;;;14.23;5.65;;;11.00;99.90;;;;;;12218576;28;20400;-80
2021/05/13 05:22:50;;;;;;;7.80;5.18;;;11.20;99.90;;;;;;12210322;28;20519;-79
2021/05/13 05:28:52;;;;;;;14.15;6.78;;;11.40;99.90;;;;;;12218841;28;20304;-79
2021/05/13 05:34:54;;;;;;;9.15;6.03;;;11.20;99.90;;;;;;12199827;28;20145;-80
2021/05/13 05:40:56;;;;;;;9.77;6.40;;;11.20;99.90;;;;;;12202430;28;20044;-79
2021/05/13 05:46:58;;;;;;;12.52;6.25;;;11.20;99.90;;;;;;12209690;28;20059;-80
2021/05/13 05:53:02;;;;;;;12.77;6.45;;;11.50;99.90;;;;;;12200604;28;20052;-79
2021/05/13 05:59:06;;;;;;;10.82;6.38;;;11.80;99.90;;;;;;12199489;28;20074;-79
2021/05/13 06:05:08;;;;;;;13.65;6.72;;;12.10;99.90;;;;;;12201790;28;20171;-79
2021/05/13 06:11:10;;;;;;;10.63;6.60;;;12.00;99.90;;;;;;12201588;28;20126;-79
2021/05/13 06:17:12;;;;;;;11.23;6.40;;;12.10;99.90;;;;;;12203115;28;20052;-80
2021/05/13 06:23:15;;;;;;;12.27;6.25;;;12.10;99.90;;;;;;12195453;28;20056;-79
2021/05/13 06:29:17;;;;;;;11.82;6.10;;;12.20;99.90;;;;;;12201956;28;20056;-79
2021/05/13 06:35:20;;;;;;;8.20;5.53;;;12.30;99.90;;;;;;12198789;28;20115;-79
2021/05/13 06:41:22;;;;;;;12.07;4.97;;;12.50;99.90;;;;;;12206578;28;20043;-79
2021/05/13 06:47:23;;;;;;;9.70;3.83;;;12.70;99.90;;;;;;12212753;28;20162;-79
2021/05/13 06:53:25;;;;;;;10.98;4.07;;;13.20;99.90;;;;;;12225210;28;20047;-79
2021/05/13 06:59:28;;;;;;;8.35;2.78;;;13.50;99.90;;;;;;12206451;28;20060;-79
2021/05/13 07:05:30;;;;;;;10.20;3.47;;;13.40;99.90;;;;;;12211277;28;20078;-79
2021/05/13 07:11:33;;;;;;;8.70;3.53;;;13.70;99.90;;;;;;12210092;28;20048;-80
2021/05/13 07:17:34;;;;;;;10.25;3.20;;;13.80;99.90;;;;;;12209319;28;20095;-80
2021/05/13 07:23:38;;;;;;;9.60;3.47;;;13.80;99.90;;;;;;12217631;28;20048;-80
2021/05/13 07:29:40;;;;;;;7.77;2.80;;;14.00;99.90;;;;;;12207223;28;20361;-80
2021/05/13 07:35:42;;;;;;;7.13;2.55;;;14.00;99.90;;;;;;12213756;28;20078;-80
2021/05/13 07:41:44;;;;;;;8.63;2.95;;;14.10;99.90;;;;;;12208180;28;20064;-80
2021/05/13 07:47:46;;;;;;;6.28;2.53;;;14.20;99.90;;;;;;12211430;28;20048;-79
2021/05/13 07:53:48;;;;;;;7.97;2.40;;;14.30;99.90;;;;;;12212122;28;20151;-80
2021/05/13 07:59:50;;;;;;;9.65;3.13;;;14.20;99.90;;;;;;12219806;28;20104;-80
2021/05/13 08:05:52;;;;;;;6.18;2.30;;;14.40;99.90;;;;;;12217581;28;20185;-80
2021/05/13 08:11:54;;;;;;;6.57;2.17;;;14.60;99.90;;;;;;12218215;28;20547;-80
2021/05/13 08:17:56;;;;;;;5.88;1.92;;;14.50;99.90;;;;;;12210392;28;20567;-80
2021/05/13 08:23:58;;;;;;;9.02;2.28;;;14.80;99.90;;;;;;12210706;28;20040;-80
2021/05/13 08:30:00;;;;;;;5.68;2.20;;;15.00;99.90;;;;;;12202863;28;20059;-80
2021/05/13 08:36:02;;;;;;;5.47;1.75;;;15.00;99.90;;;;;;12210877;28;20747;-80
2021/05/13 08:42:04;;;;;;;5.82;1.80;;;15.30;99.90;;;;;;12189241;28;20055;-80
2021/05/13 08:48:06;;;;;;;6.50;2.03;;;15.50;99.90;;;;;;12159343;28;20131;-81
2021/05/13 08:54:09;;;;;;;8.27;2.30;;;15.60;99.90;;;;;;12158885;28;20052;-80
2021/05/13 09:00:11;;;;;;;9.80;1.67;;;15.90;99.90;;;;;;12159347;29;20059;-80
2021/05/13 09:06:35;;;;;;;4.68;1.40;;;15.90;99.90;;;;;;12211000;28;20177;-80
2021/05/13 09:12:39;;;;;;;9.00;2.10;;;16.20;99.90;;;;;;12201429;28;20699;-80
2021/05/13 09:18:41;;;;;;;;;;;16.20;99.90;;;;;;12205089;28;20131;-80
2021/05/13 09:24:59;;;;;;;6.47;1.80;;;16.30;99.90;;;;;;12277878;28;19930;-80
2021/05/13 09:31:02;;;;;;;7.88;2.33;;;16.60;99.90;;;;;;12200973;28;20052;-80
2021/05/13 09:37:12;;;;;;;8.98;1.85;;;16.50;99.90;;;;;;12225104;28;20048;-80
2021/05/13 09:43:22;;;;;;;6.72;1.20;;;16.40;99.90;;;;;;12248223;28;20048;-80
2021/05/13 09:49:28;;;;;;;;;;;16.60;99.90;;;;;;12205074;28;20094;-80
2021/05/13 09:55:31;;;;;;;7.68;2.33;;;16.90;99.90;;;;;;12192018;29;20375;-80
2021/05/13 10:01:36;;;;;;;3.40;1.60;;;16.70;99.90;;;;;;12194946;28;20082;-81
2021/05/13 10:07:38;;;;;;;5.43;1.90;;;16.90;99.90;;;;;;12196618;29;20076;-80
2021/05/13 10:13:42;;;;;;;7.43;2.08;;;17.00;99.90;;;;;;12193491;28;20485;-80
2021/05/13 10:19:51;;;;;;;5.47;2.10;;;17.30;99.90;;;;;;12207219;29;20163;-80
2021/05/13 10:25:53;;;;;;;7.43;2.60;;;17.20;99.90;;;;;;12204361;28;20072;-80
2021/05/13 10:32:01;;;;;;;6.47;2.55;;;17.20;99.90;;;;;;12187076;28;20135;-80
2021/05/13 10:38:09;;;;;;;7.55;3.15;;;17.50;99.90;;;;;;12187943;28;20052;-80
2021/05/13 10:44:11;;;;;;;7.05;2.47;;;17.80;99.90;;;;;;12276849;28;20694;-81
2021/05/13 10:50:13;;;;;;;7.90;4.10;;;17.90;99.90;;;;;;12200129;29;20058;-80
2021/05/13 10:56:24;;;;;;;9.98;5.00;;;17.80;99.90;;;;;;12170423;28;20163;-80
2021/05/13 11:02:35;;;;;;;13.60;6.60;;;18.00;99.90;;;;;;12171365;28;20044;-81
2021/05/13 11:08:46;;;;;;;9.35;3.63;;;18.10;99.90;;;;;;12177998;28;20548;-80
2021/05/13 11:20:59;;;;;;;7.18;3.22;;;18.30;99.90;;;;;;12200560;28;20182;-80
2021/05/13 11:27:02;;;;;;;5.45;2.13;;;18.40;99.90;;;;;;12208345;28;20108;-81
2021/05/13 11:33:08;;;;;;;7.68;2.20;;;18.40;99.90;;;;;;12229714;28;20621;-81
2021/05/13 11:39:17;;;;;;;5.15;1.50;;;18.90;99.90;;;;;;12211118;28;20076;-80
2021/05/13 11:45:22;;;;;;;6.88;1.85;;;19.20;99.90;;;;;;12199928;28;20067;-80
2021/05/13 11:51:29;;;;;;;11.85;5.07;;;19.20;99.90;;;;;;12208406;28;20051;-81
2021/05/13 11:57:31;;;;;;;6.70;1.85;;;19.00;99.90;;;;;;12207046;28;20102;-81
2021/05/13 12:03:33;;;;;;;6.50;1.73;;;18.80;99.90;;;;;;12233454;28;20084;-81
2021/05/13 12:09:34;;;;;;;8.65;4.43;;;19.30;99.90;;;;;;12212721;28;20048;-82
2021/05/13 12:15:36;;;;;;;10.85;3.83;;;19.80;99.90;;;;;;12210774;28;20087;-82
2021/05/13 12:21:40;;;;;;;9.20;3.13;;;19.10;99.90;;;;;;12221206;28;20052;-81
2021/05/13 12:27:42;;;;;;;7.20;3.38;;;;;;;;;;12213871;28;20084;-80
2021/05/13 12:33:44;;;;;;;8.27;2.72;;;20.30;99.90;;;;;;12219684;28;20067;-81
2021/05/13 12:39:46;;;;;;;7.65;3.05;;;19.80;99.90;;;;;;12209604;28;20064;-81
2021/05/13 12:45:51;;;;;;;6.93;2.05;;;19.10;99.90;;;;;;12214116;28;20083;-80
2021/05/13 12:52:08;;;;;;;5.60;2.25;;;19.00;99.90;;;;;;12205196;28;20055;-80
2021/05/13 12:58:12;;;;;;;5.88;1.80;;;18.90;99.90;;;;;;12222135;28;20067;-81
2021/05/13 13:04:13;;;;;;;7.10;2.58;;;19.60;99.90;;;;;;12216591;28;20095;-82
2021/05/13 13:10:34;;;;;;;5.68;2.13;;;19.90;99.90;;;;;;12215710;28;20129;-81
2021/05/13 13:16:39;;;;;;;6.28;2.40;;;20.80;99.90;;;;;;12214183;28;20059;-81
2021/05/13 13:22:40;;;;;;;8.73;2.67;;;19.50;99.90;;;;;;12224134;28;20139;-80
2021/05/13 13:28:42;;;;;;;6.53;2.60;;;20.00;99.90;;;;;;12221561;28;20071;-81
2021/05/13 13:34:47;;;;;;;4.45;2.25;;;20.70;99.90;;;;;;12175554;28;20586;-82
2021/05/13 13:40:52;;;;;;;5.47;1.92;;;20.40;99.90;;;;;;12161400;29;20080;-81
2021/05/13 13:46:54;;;;;;;6.80;2.45;;;20.80;99.90;;;;;;12236494;28;20048;-81
2021/05/13 13:52:56;;;;;;;7.22;2.30;;;20.20;99.90;;;;;;12155522;29;20078;-81
2021/05/13 13:58:58;;;;;;;5.63;2.10;;;20.30;99.90;;;;;;12154166;29;20052;-81
2021/05/13 14:05:00;;;;;;;6.00;2.30;;;21.10;99.90;;;;;;12155407;29;20807;-82
2021/05/13 14:11:02;;;;;;;6.40;2.10;;;21.30;99.90;;;;;;12152100;28;20048;-82
2021/05/13 14:17:04;;;;;;;5.25;2.17;;;20.40;99.90;;;;;;12161031;28;20048;-81
2021/05/13 14:23:07;;;;;;;8.57;2.67;;;19.60;99.90;;;;;;12159528;28;20059;-82
2021/05/13 14:29:09;;;;;;;6.75;2.17;;;20.20;99.90;;;;;;12154737;29;20156;-82
2021/05/13 14:35:11;;;;;;;5.68;2.25;;;20.60;99.90;;;;;;12198992;28;20067;-81
2021/05/13 14:41:13;;;;;;;9.27;2.28;;;21.00;99.90;;;;;;12201202;28;20040;-81
2021/05/13 14:47:15;;;;;;;5.75;1.85;;;21.10;99.90;;;;;;12199000;28;20105;-81
2021/05/13 14:53:17;;;;;;;8.10;2.33;;;21.20;99.90;;;;;;12223570;28;20068;-81
2021/05/13 14:59:19;;;;;;;5.22;1.83;;;21.30;99.90;;;;;;12249298;28;20056;-81
2021/05/13 15:05:21;;;;;;;4.68;2.10;;;21.10;99.90;;;;;;12213741;28;20149;-81
2021/05/13 15:11:23;;;;;;;7.22;2.33;;;21.00;99.90;;;;;;12211464;28;20064;-80
2021/05/13 15:17:25;;;;;;;10.15;2.58;;;20.20;99.90;;;;;;12211008;28;20595;-81
2021/05/13 15:23:27;;;;;;;8.48;2.92;;;20.10;99.90;;;;;;12208136;28;20165;-81
2021/05/13 15:29:29;;;;;;;8.10;2.47;;;20.80;99.90;;;;;;12204293;28;20055;-81
2021/05/13 15:35:31;;;;;;;8.63;2.30;;;20.90;99.90;;;;;;12212940;28;20079;-82
2021/05/13 15:41:33;;;;;;;6.57;2.00;;;21.00;99.90;;;;;;12212455;28;20079;-80
2021/05/13 15:47:34;;;;;;;7.45;1.95;;;21.20;99.90;;;;;;12210341;28;20468;-82
2021/05/13 15:53:37;;;;;;;7.43;2.00;;;21.30;99.90;;;;;;12209747;28;20547;-80
2021/05/13 15:59:39;;;;;;;5.90;1.90;;;21.20;99.90;;;;;;12203256;29;20091;-81
2021/05/13 16:05:41;;;;;;;8.88;1.98;;;21.20;99.90;;;;;;12188686;28;20401;-81
2021/05/13 16:11:43;;;;;;;4.47;1.63;;;21.30;99.90;;;;;;12169952;28;20060;-81
2021/05/13 16:17:45;;;;;;;6.30;2.10;;;21.40;99.90;;;;;;12168517;28;20140;-81
2021/05/13 16:23:47;;;;;;;6.05;1.75;;;21.20;99.90;;;;;;12189117;28;20051;-80
2021/05/13 16:29:49;;;;;;;4.97;1.50;;;20.90;99.90;;;;;;12205422;28;20135;-80
2021/05/13 16:35:51;;;;;;;3.58;1.40;;;21.40;99.90;;;;;;12206686;28;20050;-81
2021/05/13 16:41:53;;;;;;;4.45;1.30;;;21.40;99.90;;;;;;12217230;28;20461;-80
2021/05/13 16:47:55;;;;;;;4.80;1.60;;;20.70;99.90;;;;;;12220822;28;20506;-81
2021/05/13 16:53:57;;;;;;;5.15;1.50;;;20.80;99.90;;;;;;12204827;28;20067;-81
2021/05/13 16:59:59;;;;;;;6.35;1.70;;;20.80;99.90;;;;;;12206490;28;21084;-80
2021/05/13 17:06:06;;;;;;;4.45;1.65;;;21.10;99.90;;;;;;12210185;28;20060;-80
2021/05/13 17:12:08;;;;;;;6.95;1.60;;;21.50;99.90;;;;;;12211005;28;20107;-80
2021/05/13 17:18:10;;;;;;;3.65;1.30;;;21.20;99.90;;;;;;12210547;28;20060;-81
2021/05/13 17:24:13;;;;;;;3.17;1.00;;;20.50;99.90;;;;;;12207424;28;20559;-80
2021/05/13 17:30:35;;;;;;;4.47;1.23;;;20.60;99.90;;;;;;12207569;28;20079;-80
2021/05/13 17:36:39;;;;;;;6.28;1.25;;;20.60;99.90;;;;;;12204657;28;20056;-80
2021/05/13 17:42:40;;;;;;;;;;;19.70;99.90;;;;;;12221381;28;20080;-80
2021/05/13 17:48:43;;;;;;;2.80;0.88;;;19.10;99.90;;;;;;12213665;28;20434;-80
2021/05/13 17:55:07;;;;;;;4.05;1.00;;;18.50;99.90;;;;;;12211360;28;20524;-80
2021/05/13 18:01:10;;;;;;;4.45;0.70;;;17.70;99.90;;;;;;12228472;28;20067;-81
2021/05/13 18:07:12;;;;;;;2.92;0.65;;;17.20;99.90;;;;;;12224221;28;20054;-80
2021/05/13 18:13:14;;;;;;;3.75;0.90;;;16.80;99.90;;;;;;12207416;28;20072;-80
2021/05/13 18:19:16;;;;;;;2.13;0.93;;;16.70;99.90;;;;;;12215532;28;20411;-80
2021/05/13 18:25:18;;;;;;;2.35;0.80;;;16.60;99.90;;;;;;12212645;28;20139;-80
2021/05/13 18:31:20;;;;;;;2.50;0.80;;;16.50;99.90;;;;;;12202612;28;20087;-80
2021/05/13 18:37:22;;;;;;;4.68;1.00;;;16.20;99.90;;;;;;12200951;28;20056;-80
2021/05/13 18:43:27;;;;;;;3.63;0.90;;;16.00;99.90;;;;;;12206949;28;20052;-80
2021/05/13 18:49:29;;;;;;;4.25;1.00;;;15.70;99.90;;;;;;12208723;28;20074;-80
2021/05/13 18:55:38;;;;;;;2.67;1.00;;;15.50;99.90;;;;;;12209578;28;20086;-80
2021/05/13 19:01:40;;;;;;;3.17;0.90;;;15.40;99.90;;;;;;12221418;28;20521;-79
2021/05/13 19:07:42;;;;;;;2.00;0.70;;;15.50;99.90;;;;;;12207052;28;20473;-80
2021/05/13 19:13:44;;;;;;;3.20;0.85;;;15.40;99.90;;;;;;12203586;28;20584;-80
2021/05/13 19:19:46;;;;;;;3.60;1.35;;;15.10;99.90;;;;;;12199141;28;20087;-80
2021/05/13 19:25:50;;;;;;;3.63;1.08;;;14.70;99.90;;;;;;12203236;28;20086;-80
2021/05/13 19:38:19;;;;;;;2.42;1.00;;;14.40;99.90;;;;;;12213335;28;20296;-79
2021/05/13 19:44:21;;;;;;;3.80;1.37;;;14.50;99.90;;;;;;12201869;28;20067;-79
2021/05/13 19:50:23;;;;;;;5.20;1.10;;;14.20;99.90;;;;;;12221935;28;20299;-79
2021/05/13 19:56:25;;;;;;;3.90;1.23;;;14.30;99.90;;;;;;12214116;28;20083;-79
2021/05/13 20:02:32;;;;;;;4.03;1.20;;;14.30;99.90;;;;;;12213313;28;20082;-79
2021/05/13 20:08:39;;;;;;;5.47;1.00;;;14.10;99.90;;;;;;12213885;28;20067;-79
2021/05/13 20:14:41;;;;;;;5.22;1.00;;;14.10;99.90;;;;;;12238595;28;20058;-79
2021/05/13 20:20:43;;;;;;;5.25;1.30;;;13.80;99.90;;;;;;12255034;28;20114;-79
2021/05/13 20:26:51;;;;;;;3.75;1.38;;;14.00;99.90;;;;;;12213230;28;20053;-79
2021/05/13 20:32:54;;;;;;;4.85;1.33;;;13.90;99.90;;;;;;12206153;28;20056;-79
2021/05/13 20:38:57;;;;;;;4.32;1.40;;;13.60;99.90;;;;;;12214052;28;20068;-79
2021/05/13 20:44:59;;;;;;;2.88;1.33;;;13.70;99.90;;;;;;12208159;28;20048;-79
2021/05/13 21:03:37;;;;;;;4.88;1.50;;;13.90;99.90;;;;;;12195594;28;20076;-79
2021/05/13 21:28:06;;;;;;;5.70;2.25;;;13.90;99.90;;;;;;12200729;28;20055;-79
2021/05/13 21:34:08;;;;;;;6.82;2.00;;;13.80;99.90;;;;;;12199202;28;20116;-78
2021/05/13 21:40:11;;;;;;;3.45;1.90;;;13.90;99.90;;;;;;12194627;28;20380;-79
2021/05/13 21:46:17;;;;;;;5.68;1.90;;;13.80;99.90;;;;;;12205315;28;20151;-78
2021/05/13 21:52:19;;;;;;;5.47;2.00;;;13.80;99.90;;;;;;12217793;28;20466;-79
2021/05/13 21:58:22;;;;;;;5.97;2.25;;;13.90;99.90;;;;;;12203874;28;20102;-79
2021/05/13 22:04:23;;;;;;;6.75;2.58;;;13.80;99.90;;;;;;12205025;28;20044;-79
2021/05/13 22:10:25;;;;;;;6.07;2.65;;;13.60;99.90;;;;;;12205486;28;20137;-79
2021/05/13 22:16:27;;;;;;;5.18;2.53;;;13.60;99.90;;;;;;12223694;28;20054;-79
2021/05/13 22:22:33;;;;;;;5.63;2.25;;;13.50;99.90;;;;;;12287355;28;20048;-79
2021/05/13 22:28:48;;;;;;;4.85;2.40;;;13.20;99.90;;;;;;12205504;28;20098;-79
2021/05/13 22:34:51;;;;;;;6.00;2.20;;;12.90;99.90;;;;;;12205994;28;20044;-79
2021/05/13 22:40:53;;;;;;;4.80;2.35;;;12.60;99.90;;;;;;12201662;28;20091;-79
2021/05/13 22:46:55;;;;;;;6.15;2.38;;;12.60;99.90;;;;;;12206725;28;20053;-79
2021/05/13 22:52:57;;;;;;;6.53;2.30;;;12.80;99.90;;;;;;12212301;28;20052;-79
2021/05/13 22:59:00;;;;;;;5.03;2.13;;;12.80;99.90;;;;;;12201103;28;20138;-79
2021/05/13 23:05:02;;;;;;;4.85;2.40;;;12.80;99.90;;;;;;12222022;28;20429;-79
2021/05/13 23:11:04;;;;;;;9.73;2.42;;;12.70;99.90;;;;;;12210553;28;20063;-79
2021/05/13 23:17:06;;;;;;;5.78;2.38;;;12.30;99.90;;;;;;12214133;28;20412;-78
2021/05/13 23:23:08;;;;;;;7.22;2.70;;;12.30;99.90;;;;;;12203318;28;20562;-79
2021/05/13 23:29:10;;;;;;;4.75;3.13;;;12.50;99.90;;;;;;12212120;28;20076;-79
2021/05/13 23:35:12;;;;;;;5.25;2.60;;;12.50;99.90;;;;;;12213108;28;20060;-79
2021/05/13 23:41:14;;;;;;;5.43;2.22;;;12.50;99.90;;;;;;12206209;28;21499;-79
2021/05/13 23:47:16;;;;;;;4.80;2.33;;;12.30;99.90;;;;;;12210264;28;20063;-79
2021/05/13 23:53:18;;;;;;;6.43;2.78;;;12.00;99.90;;;;;;12216207;28;20167;-79
2021/05/13 23:59:25;;;;;;;6.72;3.05;;;11.90;99.90;;;;;;12202339;28;20083;-79
